Time;durP1;ratioP1;P1;durP2;ratioP2;P2;SDS_P1;SDS_P2;PMS_P1;PMS_P2;Temp;Humidity;BMP_temperature;BMP_pressure;BME280_temperature;BME280_humidity;BME280_pressure;Samples;Min_cycle;Max_cycle;Signal;HPM_P1;HPM_P2
2022/09/25 00:00:34;;;;;;;6.50;5.00;;;;;;;;;;1906648;74;21243;-83
2022/09/25 00:03:04;;;;;;;5.90;4.50;;;;;;;;;;1898190;75;21117;-81
2022/09/25 00:05:35;;;;;;;6.03;3.80;;;;;;;;;;1894532;74;21207;-83
2022/09/25 00:08:06;;;;;;;5.60;4.17;;;;;;;;;;1906391;74;21128;-83
2022/09/25 00:10:38;;;;;;;5.35;3.70;;;;;;;;;;1893338;74;21071;-82
2022/09/25 00:13:08;;;;;;;6.42;3.15;;;;;;;;;;1891316;74;21138;-85
2022/09/25 00:15:39;;;;;;;7.25;3.58;;;;;;;;;;1890581;75;21095;-82
2022/09/25 00:18:10;;;;;;;5.42;3.35;;;;;;;;;;1891062;76;21373;-82
2022/09/25 00:20:40;;;;;;;11.30;7.53;;;;;;;;;;1895412;74;21612;-82
2022/09/25 00:23:11;;;;;;;16.80;11.65;;;;;;;;;;1894740;74;21663;-82
2022/09/25 00:25:42;;;;;;;31.42;21.42;;;;;;;;;;1898966;74;21183;-83
2022/09/25 00:28:13;;;;;;;10.90;7.50;;;;;;;;;;1890824;75;21605;-82
2022/09/25 00:30:45;;;;;;;8.60;5.20;;;;;;;;;;1890538;74;21193;-81
2022/09/25 00:33:15;;;;;;;5.42;3.85;;;;;;;;;;1896052;74;21153;-82
2022/09/25 00:35:45;;;;;;;5.53;3.77;;;;;;;;;;1895997;75;21111;-81
2022/09/25 00:38:15;;;;;;;7.60;5.08;;;;;;;;;;1891652;75;21198;-82
2022/09/25 00:40:45;;;;;;;6.50;4.60;;;;;;;;;;1890064;74;21196;-82
2022/09/25 00:43:17;;;;;;;7.62;4.87;;;;;;;;;;1889618;74;21550;-81
2022/09/25 00:45:47;;;;;;;5.83;4.67;;;;;;;;;;1885561;76;21063;-82
2022/09/25 00:48:17;;;;;;;6.97;4.83;;;;;;;;;;1886972;75;21672;-82
2022/09/25 00:50:49;;;;;;;7.50;4.97;;;;;;;;;;1890568;74;21632;-82
2022/09/25 00:53:20;;;;;;;6.70;3.60;;;;;;;;;;1888475;74;21669;-82
2022/09/25 00:55:50;;;;;;;6.42;4.17;;;;;;;;;;1889068;75;21189;-81
2022/09/25 00:58:22;;;;;;;4.75;4.00;;;;;;;;;;1890578;76;21085;-83
2022/09/25 01:00:53;;;;;;;4.55;3.50;;;;;;;;;;1890264;74;21191;-82
2022/09/25 01:03:24;;;;;;;5.60;4.10;;;;;;;;;;1894029;74;21211;-84
2022/09/25 01:05:55;;;;;;;5.30;4.12;;;;;;;;;;1892210;75;21596;-83
2022/09/25 01:08:26;;;;;;;5.20;4.10;;;;;;;;;;1880616;74;21155;-83
2022/09/25 01:10:57;;;;;;;7.45;4.15;;;;;;;;;;1874442;74;21491;-83
2022/09/25 01:13:28;;;;;;;5.08;3.85;;;;;;;;;;1869247;76;21658;-83
2022/09/25 01:16:05;;;;;;;7.70;3.47;;;;;;;;;;1881081;75;21643;-83
2022/09/25 01:18:35;;;;;;;5.20;3.75;;;;;;;;;;1880709;74;21629;-83
2022/09/25 01:21:07;;;;;;;4.85;3.90;;;;;;;;;;1885941;74;21670;-81
2022/09/25 01:23:38;;;;;;;4.50;3.47;;;;;;;;;;1882114;74;21183;-82
2022/09/25 01:26:10;;;;;;;6.33;3.62;;;;;;;;;;1875495;74;21142;-82
2022/09/25 01:28:42;;;;;;;4.40;3.95;;;;;;;;;;1879273;74;21891;-81
2022/09/25 01:31:14;;;;;;;4.78;3.72;;;;;;;;;;1881963;74;21156;-84
2022/09/25 01:33:45;;;;;;;5.87;3.72;;;;;;;;;;1881561;74;21120;-86
2022/09/25 01:36:17;;;;;;;4.20;3.27;;;;;;;;;;1882944;74;21225;-82
2022/09/25 01:38:48;;;;;;;4.95;3.80;;;;;;;;;;1845112;76;21081;-82
2022/09/25 01:41:19;;;;;;;6.28;3.67;;;;;;;;;;1817887;77;21591;-82
2022/09/25 01:43:51;;;;;;;5.67;3.55;;;;;;;;;;1854928;76;21225;-82
2022/09/25 01:46:22;;;;;;;6.67;3.30;;;;;;;;;;1851581;76;21167;-83
2022/09/25 01:48:54;;;;;;;6.10;3.87;;;;;;;;;;1847363;76;21177;-82
2022/09/25 01:51:28;;;;;;;4.40;3.30;;;;;;;;;;1852846;75;21214;-81
2022/09/25 01:53:59;;;;;;;5.20;3.95;;;;;;;;;;1849210;76;21144;-82
2022/09/25 01:56:32;;;;;;;4.72;3.80;;;;;;;;;;1850625;76;21174;-83
2022/09/25 01:59:03;;;;;;;4.25;3.50;;;;;;;;;;1818874;77;22023;-83
2022/09/25 02:01:35;;;;;;;6.12;4.45;;;;;;;;;;1853660;76;21699;-83
2022/09/25 02:04:07;;;;;;;6.05;4.00;;;;;;;;;;1817672;77;21705;-83
2022/09/25 02:06:38;;;;;;;5.05;3.92;;;;;;;;;;1850413;76;21230;-84
2022/09/25 02:09:09;;;;;;;12.03;4.65;;;;;;;;;;1888175;74;21162;-83
2022/09/25 02:11:41;;;;;;;4.72;3.70;;;;;;;;;;1886459;74;21099;-83
2022/09/25 02:14:12;;;;;;;8.23;4.30;;;;;;;;;;1892536;74;21145;-83
2022/09/25 02:16:43;;;;;;;9.33;7.78;;;;;;;;;;1889415;74;21130;-84
2022/09/25 02:21:45;;;;;;;6.85;4.42;;;;;;;;;;1850509;75;21466;-84
2022/09/25 02:24:16;;;;;;;5.90;4.33;;;;;;;;;;1892698;74;21103;-83
2022/09/25 02:26:47;;;;;;;5.55;4.37;;;;;;;;;;1887453;74;21121;-82
2022/09/25 02:29:18;;;;;;;5.08;4.12;;;;;;;;;;1892399;74;21780;-85
2022/09/25 02:31:50;;;;;;;5.28;4.20;;;;;;;;;;1894648;74;21224;-83
2022/09/25 02:34:21;;;;;;;4.55;4.00;;;;;;;;;;1895084;74;21681;-81
2022/09/25 02:36:51;;;;;;;6.75;4.10;;;;;;;;;;1892845;74;21196;-82
2022/09/25 02:39:22;;;;;;;5.50;4.08;;;;;;;;;;1899088;74;21130;-84
2022/09/25 02:41:54;;;;;;;6.20;4.00;;;;;;;;;;1892920;74;21141;-84
2022/09/25 02:44:25;;;;;;;5.53;4.50;;;;;;;;;;1896117;74;21194;-84
2022/09/25 02:46:58;;;;;;;8.53;4.20;;;;;;;;;;1892815;74;21664;-84
2022/09/25 02:49:29;;;;;;;5.15;3.90;;;;;;;;;;1896726;74;21151;-83
2022/09/25 02:52:00;;;;;;;6.72;3.75;;;;;;;;;;1894660;74;21724;-83
2022/09/25 02:54:30;;;;;;;4.62;3.55;;;;;;;;;;1886168;74;21118;-83
2022/09/25 02:57:01;;;;;;;4.00;3.60;;;;;;;;;;1890115;74;21620;-87
2022/09/25 02:59:33;;;;;;;6.17;3.77;;;;;;;;;;1889422;74;21298;-86
2022/09/25 03:02:04;;;;;;;4.05;3.50;;;;;;;;;;1895620;74;21187;-84
2022/09/25 03:04:35;;;;;;;6.05;4.37;;;;;;;;;;1885678;76;21204;-84
2022/09/25 03:07:06;;;;;;;5.78;4.00;;;;;;;;;;1893487;74;21198;-83
2022/09/25 03:09:37;;;;;;;4.65;3.60;;;;;;;;;;1895792;74;21200;-83
2022/09/25 03:12:07;;;;;;;4.22;3.77;;;;;;;;;;1855733;76;21142;-84
2022/09/25 03:14:38;;;;;;;6.40;3.90;;;;;;;;;;1890172;74;21136;-82
2022/09/25 03:17:09;;;;;;;6.53;4.37;;;;;;;;;;1883516;74;21925;-83
2022/09/25 03:19:39;;;;;;;6.33;4.00;;;;;;;;;;1895347;74;21592;-84
2022/09/25 03:22:10;;;;;;;5.12;3.37;;;;;;;;;;1883914;74;21110;-82
2022/09/25 03:24:40;;;;;;;4.17;3.67;;;;;;;;;;1886391;74;21606;-83
2022/09/25 03:27:11;;;;;;;4.70;3.60;;;;;;;;;;1886631;74;21564;-82
2022/09/25 03:29:41;;;;;;;4.78;3.27;;;;;;;;;;1888896;74;21186;-82
2022/09/25 03:32:12;;;;;;;4.50;3.47;;;;;;;;;;1887008;74;21732;-84
2022/09/25 03:34:42;;;;;;;4.97;3.50;;;;;;;;;;1860963;76;21264;-84
2022/09/25 03:37:12;;;;;;;3.47;2.95;;;;;;;;;;1890531;74;21248;-83
2022/09/25 03:39:42;;;;;;;3.98;2.83;;;;;;;;;;1889227;74;21051;-82
2022/09/25 03:42:13;;;;;;;4.30;3.33;;;;;;;;;;1885820;74;21065;-82
2022/09/25 03:44:43;;;;;;;3.50;2.72;;;;;;;;;;1883870;74;21173;-82
2022/09/25 03:47:13;;;;;;;3.40;2.55;;;;;;;;;;1882227;74;21181;-83
2022/09/25 03:49:43;;;;;;;4.10;3.20;;;;;;;;;;1888927;74;21196;-83
2022/09/25 03:52:14;;;;;;;3.55;3.15;;;;;;;;;;1889234;74;21989;-82
2022/09/25 03:54:44;;;;;;;5.30;3.42;;;;;;;;;;1885584;74;21168;-83
2022/09/25 03:57:14;;;;;;;4.42;3.15;;;;;;;;;;1888919;74;21114;-83
2022/09/25 03:59:44;;;;;;;5.33;3.10;;;;;;;;;;1814581;77;21205;-84
2022/09/25 04:02:14;;;;;;;4.35;2.98;;;;;;;;;;1886684;74;21135;-84
2022/09/25 04:04:44;;;;;;;5.30;3.27;;;;;;;;;;1885832;74;21648;-83
2022/09/25 04:07:15;;;;;;;3.58;3.12;;;;;;;;;;1882563;74;21152;-84
2022/09/25 04:09:45;;;;;;;4.37;2.35;;;;;;;;;;1879878;74;21155;-83
2022/09/25 04:12:18;;;;;;;3.95;3.00;;;;;;;;;;1878286;74;21094;-84
2022/09/25 04:14:47;;;;;;;4.05;3.25;;;;;;;;;;1895023;74;21175;-85
2022/09/25 04:17:18;;;;;;;3.70;2.92;;;;;;;;;;1890033;74;21115;-85
2022/09/25 04:19:48;;;;;;;5.42;3.65;;;;;;;;;;1879620;74;21135;-86
2022/09/25 04:22:18;;;;;;;4.83;3.80;;;;;;;;;;1891910;74;21740;-85
2022/09/25 04:24:48;;;;;;;4.45;3.55;;;;;;;;;;1879585;74;21268;-85
2022/09/25 04:27:20;;;;;;;3.92;3.37;;;;;;;;;;1880826;74;21150;-84
2022/09/25 04:29:50;;;;;;;4.17;3.33;;;;;;;;;;1892788;74;21220;-85
2022/09/25 04:34:52;;;;;;;5.78;3.70;;;;;;;;;;1896727;74;21742;-84
2022/09/25 04:37:24;;;;;;;6.12;3.98;;;;;;;;;;1888599;74;21131;-85
2022/09/25 04:39:54;;;;;;;5.72;3.98;;;;;;;;;;1879792;74;21197;-85
2022/09/25 04:42:24;;;;;;;4.72;4.03;;;;;;;;;;1879433;74;21083;-84
2022/09/25 04:44:55;;;;;;;4.53;4.05;;;;;;;;;;1879348;74;21158;-84
2022/09/25 04:47:28;;;;;;;8.25;4.15;;;;;;;;;;1846853;76;21691;-84
2022/09/25 04:49:58;;;;;;;5.45;3.72;;;;;;;;;;1818380;77;21213;-85
2022/09/25 04:52:30;;;;;;;4.17;3.35;;;;;;;;;;1823993;77;21196;-83
2022/09/25 04:55:00;;;;;;;4.78;3.95;;;;;;;;;;1820249;77;21237;-83
2022/09/25 04:57:30;;;;;;;4.33;3.37;;;;;;;;;;1842458;76;21534;-83
2022/09/25 05:00:01;;;;;;;5.35;4.22;;;;;;;;;;1847752;76;21967;-84
2022/09/25 05:02:32;;;;;;;5.12;4.12;;;;;;;;;;1843549;76;21198;-84
2022/09/25 05:05:02;;;;;;;4.75;4.10;;;;;;;;;;1843115;76;21127;-83
2022/09/25 05:07:34;;;;;;;4.33;3.92;;;;;;;;;;1841320;76;21148;-82
2022/09/25 05:10:07;;;;;;;4.75;3.95;;;;;;;;;;1844556;76;21669;-83
2022/09/25 05:12:37;;;;;;;4.72;4.20;;;;;;;;;;1893974;74;21190;-83
2022/09/25 05:15:09;;;;;;;5.28;4.00;;;;;;;;;;1900333;74;21138;-84
2022/09/25 05:17:39;;;;;;;6.15;3.87;;;;;;;;;;1856260;76;21090;-83
2022/09/25 05:20:10;;;;;;;4.78;4.00;;;;;;;;;;1867554;75;21695;-84
2022/09/25 05:22:40;;;;;;;5.00;4.33;;;;;;;;;;1902057;74;21155;-84
2022/09/25 05:25:10;;;;;;;6.17;4.33;;;;;;;;;;1899481;74;21212;-88
2022/09/25 05:27:40;;;;;;;5.17;4.67;;;;;;;;;;1894426;74;21138;-87
2022/09/25 05:30:10;;;;;;;4.97;4.10;;;;;;;;;;1893365;74;21223;-87
2022/09/25 05:32:42;;;;;;;6.45;4.55;;;;;;;;;;1855702;76;21122;-83
2022/09/25 05:35:12;;;;;;;5.05;4.15;;;;;;;;;;1890747;74;21201;-84
2022/09/25 05:37:42;;;;;;;6.55;5.05;;;;;;;;;;1899756;74;21136;-84
2022/09/25 05:40:14;;;;;;;7.12;4.65;;;;;;;;;;1898909;74;21116;-84
2022/09/25 05:42:45;;;;;;;5.20;4.17;;;;;;;;;;1894636;74;21876;-84
2022/09/25 05:45:16;;;;;;;4.80;4.22;;;;;;;;;;1891569;74;21189;-84
2022/09/25 05:47:46;;;;;;;6.42;4.58;;;;;;;;;;1891579;74;21162;-86
2022/09/25 05:50:17;;;;;;;4.80;4.30;;;;;;;;;;1890776;74;21123;-84
2022/09/25 05:52:48;;;;;;;6.05;4.40;;;;;;;;;;1851981;76;21106;-84
2022/09/25 05:55:21;;;;;;;5.60;4.80;;;;;;;;;;1889392;74;21765;-84
2022/09/25 05:57:52;;;;;;;5.30;4.47;;;;;;;;;;1892441;74;21169;-84
2022/09/25 06:00:22;;;;;;;6.40;5.10;;;;;;;;;;1904188;74;21626;-85
2022/09/25 06:02:52;;;;;;;5.30;3.98;;;;;;;;;;1853894;76;21233;-84
2022/09/25 06:05:22;;;;;;;4.78;4.37;;;;;;;;;;1825048;77;21123;-85
2022/09/25 06:07:53;;;;;;;6.62;4.45;;;;;;;;;;1899027;74;21807;-83
2022/09/25 06:10:25;;;;;;;4.85;4.22;;;;;;;;;;1888913;74;21146;-83
2022/09/25 06:12:57;;;;;;;4.35;3.95;;;;;;;;;;1887353;74;21204;-81
2022/09/25 06:15:28;;;;;;;5.35;4.03;;;;;;;;;;1849826;76;21707;-84
2022/09/25 06:17:59;;;;;;;5.42;4.03;;;;;;;;;;1853476;75;21186;-85
2022/09/25 06:20:29;;;;;;;5.87;3.85;;;;;;;;;;1858302;76;21146;-83
2022/09/25 06:22:59;;;;;;;4.35;3.67;;;;;;;;;;1857189;76;21138;-84
2022/09/25 06:25:32;;;;;;;4.85;3.70;;;;;;;;;;1861597;76;21194;-84
2022/09/25 06:28:03;;;;;;;4.53;3.47;;;;;;;;;;1882255;74;21175;-84
2022/09/25 06:30:35;;;;;;;4.47;3.60;;;;;;;;;;1889590;74;21196;-84
2022/09/25 06:33:08;;;;;;;3.90;3.37;;;;;;;;;;1900131;74;21174;-84
2022/09/25 06:35:42;;;;;;;5.12;3.50;;;;;;;;;;1895619;74;21178;-85
2022/09/25 06:38:15;;;;;;;6.60;3.67;;;;;;;;;;1900662;74;21626;-84
2022/09/25 06:40:49;;;;;;;3.95;2.90;;;;;;;;;;1895619;74;21154;-83
2022/09/25 06:43:19;;;;;;;4.55;2.58;;;;;;;;;;1899225;74;21133;-84
2022/09/25 06:45:50;;;;;;;4.47;2.77;;;;;;;;;;1894143;74;21123;-82
2022/09/25 06:48:23;;;;;;;4.08;2.65;;;;;;;;;;1897270;74;21154;-84
2022/09/25 06:50:55;;;;;;;7.97;2.60;;;;;;;;;;1892304;74;21624;-84
2022/09/25 06:53:25;;;;;;;6.95;2.60;;;;;;;;;;1893178;74;21106;-82
2022/09/25 06:55:58;;;;;;;2.22;1.45;;;;;;;;;;1895124;74;21652;-83
2022/09/25 06:58:29;;;;;;;1.65;0.95;;;;;;;;;;1890728;74;21133;-84
2022/09/25 07:00:59;;;;;;;1.60;1.10;;;;;;;;;;1843708;76;21245;-83
2022/09/25 07:06:03;;;;;;;1.50;1.00;;;;;;;;;;1857564;76;21665;-83
2022/09/25 07:08:34;;;;;;;2.25;1.42;;;;;;;;;;1850736;76;21184;-82
2022/09/25 07:11:04;;;;;;;2.98;1.40;;;;;;;;;;1841669;76;21105;-84
2022/09/25 07:13:35;;;;;;;2.80;1.37;;;;;;;;;;1878961;75;21143;-83
2022/09/25 07:16:06;;;;;;;2.30;1.37;;;;;;;;;;1878491;76;21638;-83
2022/09/25 07:18:37;;;;;;;3.55;1.70;;;;;;;;;;1892515;74;21059;-83
2022/09/25 07:21:08;;;;;;;3.52;1.80;;;;;;;;;;1879093;76;21135;-83
2022/09/25 07:23:39;;;;;;;4.12;1.87;;;;;;;;;;1860954;76;21217;-83
2022/09/25 07:26:11;;;;;;;3.62;1.37;;;;;;;;;;1819705;78;21650;-84
2022/09/25 07:28:42;;;;;;;3.10;1.87;;;;;;;;;;1821630;77;21143;-84
2022/09/25 07:31:13;;;;;;;4.30;2.22;;;;;;;;;;1878234;76;21146;-84
2022/09/25 07:33:45;;;;;;;4.20;1.90;;;;;;;;;;1867385;75;21103;-85
2022/09/25 07:36:16;;;;;;;4.80;2.40;;;;;;;;;;1845754;76;21154;-84
2022/09/25 07:38:49;;;;;;;5.15;3.75;;;;;;;;;;1840517;76;21229;-83
2022/09/25 07:41:21;;;;;;;5.55;3.42;;;;;;;;;;1864180;76;21229;-84
2022/09/25 07:43:55;;;;;;;5.80;3.90;;;;;;;;;;1868044;76;21151;-82
2022/09/25 07:46:26;;;;;;;5.75;3.50;;;;;;;;;;1870720;76;21146;-82
2022/09/25 07:48:56;;;;;;;5.55;3.90;;;;;;;;;;1851327;76;21163;-81
2022/09/25 07:51:26;;;;;;;3.77;2.95;;;;;;;;;;1867916;76;21158;-80
2022/09/25 07:53:58;;;;;;;3.25;2.37;;;;;;;;;;1887308;74;21094;-82
2022/09/25 07:56:28;;;;;;;2.90;2.22;;;;;;;;;;1912203;74;21130;-82
2022/09/25 07:58:58;;;;;;;3.70;2.72;;;;;;;;;;1910596;74;21181;-84
2022/09/25 08:01:28;;;;;;;7.37;3.33;;;;;;;;;;1916820;74;21213;-82
2022/09/25 08:03:58;;;;;;;4.85;2.67;;;;;;;;;;1896738;74;21157;-82
2022/09/25 08:06:29;;;;;;;4.30;3.02;;;;;;;;;;1851245;76;21155;-81
2022/09/25 08:08:59;;;;;;;5.25;2.67;;;;;;;;;;1853895;76;21168;-82
2022/09/25 08:11:30;;;;;;;4.47;3.02;;;;;;;;;;1816789;77;21147;-83
2022/09/25 08:14:00;;;;;;;4.47;2.90;;;;;;;;;;1854918;76;21723;-83
2022/09/25 08:16:31;;;;;;;5.72;2.77;;;;;;;;;;1882773;74;21138;-82
2022/09/25 08:19:02;;;;;;;4.90;2.30;;;;;;;;;;1886685;74;21121;-84
2022/09/25 08:21:34;;;;;;;3.77;2.62;;;;;;;;;;1892661;75;21288;-82
2022/09/25 08:24:04;;;;;;;3.95;2.92;;;;;;;;;;1880813;74;21158;-80
2022/09/25 08:26:35;;;;;;;4.87;2.27;;;;;;;;;;1883672;76;21687;-83
2022/09/25 08:29:08;;;;;;;6.90;2.52;;;;;;;;;;1892797;74;21492;-82
2022/09/25 08:31:37;;;;;;;3.90;2.85;;;;;;;;;;1882329;75;21158;-81
2022/09/25 08:34:09;;;;;;;3.95;2.30;;;;;;;;;;1880565;74;21182;-82
2022/09/25 08:36:42;;;;;;;3.80;2.22;;;;;;;;;;1870265;76;21179;-81
2022/09/25 08:39:12;;;;;;;4.72;2.10;;;;;;;;;;1838788;76;21166;-83
2022/09/25 08:41:43;;;;;;;5.12;2.52;;;;;;;;;;1852707;76;21150;-85
2022/09/25 08:44:16;;;;;;;4.85;2.60;;;;;;;;;;1840962;76;21674;-83
2022/09/25 08:49:25;;;;;;;7.40;3.45;;;;;;;;;;1844875;77;21535;-83
2022/09/25 08:51:56;;;;;;;3.67;1.92;;;;;;;;;;1858393;77;21168;-83
2022/09/25 08:54:28;;;;;;;5.85;1.90;;;;;;;;;;1886917;74;21083;-81
2022/09/25 08:57:04;;;;;;;5.60;3.27;;;;;;;;;;1889253;74;21566;-83
2022/09/25 08:59:30;;;;;;;5.37;2.45;;;;;;;;;;1880865;75;21059;-82
2022/09/25 09:02:02;;;;;;;4.08;2.25;;;;;;;;;;1880198;74;21146;-83
2022/09/25 09:04:33;;;;;;;7.17;4.40;;;;;;;;;;1882712;74;21115;-84
2022/09/25 09:07:05;;;;;;;7.87;4.87;;;;;;;;;;1878602;74;21255;-83
2022/09/25 09:09:37;;;;;;;12.03;8.25;;;;;;;;;;1881377;74;21246;-84
2022/09/25 09:12:12;;;;;;;4.28;2.83;;;;;;;;;;1887668;75;21195;-84
2022/09/25 09:14:44;;;;;;;3.80;2.60;;;;;;;;;;1887481;76;21596;-84
2022/09/25 09:17:16;;;;;;;6.33;2.83;;;;;;;;;;1892772;74;21162;-83
2022/09/25 09:19:50;;;;;;;4.35;2.40;;;;;;;;;;1917587;74;21726;-83
2022/09/25 09:22:25;;;;;;;4.20;2.20;;;;;;;;;;1920504;74;21184;-83
2022/09/25 09:24:56;;;;;;;2.35;1.52;;;;;;;;;;1923001;74;21650;-82
2022/09/25 09:27:26;;;;;;;3.08;1.60;;;;;;;;;;1902470;74;21181;-83
2022/09/25 09:29:58;;;;;;;3.30;1.80;;;;;;;;;;1913557;74;21109;-84
2022/09/25 09:32:30;;;;;;;3.15;1.70;;;;;;;;;;1881282;76;21126;-83
2022/09/25 09:35:04;;;;;;;2.83;1.70;;;;;;;;;;1880607;76;21107;-83
2022/09/25 09:37:36;;;;;;;4.40;1.98;;;;;;;;;;1877689;76;21237;-83
2022/09/25 09:40:08;;;;;;;3.98;1.90;;;;;;;;;;1911349;74;21153;-84
2022/09/25 09:42:40;;;;;;;4.67;2.17;;;;;;;;;;1856041;77;21153;-84
2022/09/25 09:45:12;;;;;;;3.52;2.25;;;;;;;;;;1881941;76;21119;-84
2022/09/25 09:47:48;;;;;;;3.50;2.10;;;;;;;;;;1894869;74;21145;-82
2022/09/25 09:50:21;;;;;;;5.53;2.00;;;;;;;;;;1890313;74;21585;-84
2022/09/25 09:53:07;;;;;;;6.28;2.37;;;;;;;;;;1883748;75;21174;-82
2022/09/25 09:55:42;;;;;;;4.10;2.27;;;;;;;;;;1893697;74;21144;-86
2022/09/25 09:58:13;;;;;;;3.30;2.55;;;;;;;;;;1884711;74;21095;-85
2022/09/25 10:00:43;;;;;;;5.40;2.37;;;;;;;;;;1892326;74;21191;-83
2022/09/25 10:03:15;;;;;;;4.15;2.02;;;;;;;;;;1892907;74;21103;-85
2022/09/25 10:06:13;;;;;;;4.03;2.27;;;;;;;;;;1885059;74;21188;-85
2022/09/25 10:08:44;;;;;;;5.72;2.20;;;;;;;;;;1883655;74;21154;-85
2022/09/25 10:11:18;;;;;;;3.45;1.80;;;;;;;;;;1919824;74;21496;-84
2022/09/25 10:13:48;;;;;;;4.92;4.08;;;;;;;;;;1892045;74;21119;-85
2022/09/25 10:16:21;;;;;;;5.08;3.60;;;;;;;;;;1863869;75;21875;-84
2022/09/25 10:18:52;;;;;;;2.87;2.40;;;;;;;;;;1901333;74;21083;-83
2022/09/25 10:21:24;;;;;;;2.92;2.08;;;;;;;;;;1883928;74;21147;-82
2022/09/25 10:23:57;;;;;;;4.08;1.98;;;;;;;;;;1880273;74;21209;-83
2022/09/25 10:26:28;;;;;;;4.03;1.70;;;;;;;;;;1907670;74;21098;-83
2022/09/25 10:28:59;;;;;;;4.92;2.10;;;;;;;;;;1907868;74;21177;-82
2022/09/25 10:31:31;;;;;;;3.33;1.60;;;;;;;;;;1896257;74;21072;-83
2022/09/25 10:34:02;;;;;;;3.92;1.70;;;;;;;;;;1886129;74;21163;-82
2022/09/25 10:36:32;;;;;;;5.67;1.85;;;;;;;;;;1900640;74;21149;-83
2022/09/25 10:39:04;;;;;;;4.08;1.92;;;;;;;;;;1885992;74;21079;-83
2022/09/25 10:41:50;;;;;;;7.03;2.92;;;;;;;;;;1883701;74;21102;-83
2022/09/25 10:44:21;;;;;;;5.08;2.50;;;;;;;;;;1903545;74;21134;-83
2022/09/25 10:52:02;;;;;;;4.58;2.30;;;;;;;;;;1878797;75;21680;-83
2022/09/25 10:54:32;;;;;;;4.78;2.30;;;;;;;;;;1883234;74;21581;-83
2022/09/25 10:57:08;;;;;;;3.80;2.25;;;;;;;;;;1848705;76;21135;-84
2022/09/25 10:59:38;;;;;;;3.27;1.98;;;;;;;;;;1818752;77;21310;-84
2022/09/25 11:02:10;;;;;;;3.45;2.60;;;;;;;;;;1848437;76;21234;-83
2022/09/25 11:04:43;;;;;;;5.12;2.95;;;;;;;;;;1821720;77;21616;-84
2022/09/25 11:07:19;;;;;;;4.70;2.90;;;;;;;;;;1848746;76;21107;-82
2022/09/25 11:09:53;;;;;;;5.65;2.90;;;;;;;;;;1855147;76;21117;-82
2022/09/25 11:12:25;;;;;;;5.37;2.98;;;;;;;;;;1841564;76;21227;-83
2022/09/25 11:15:03;;;;;;;3.62;2.00;;;;;;;;;;1851441;76;21178;-82
2022/09/25 11:17:40;;;;;;;3.70;2.17;;;;;;;;;;1861900;75;21125;-82
2022/09/25 11:20:12;;;;;;;2.72;1.98;;;;;;;;;;1862128;75;21585;-82
2022/09/25 11:22:44;;;;;;;3.37;1.95;;;;;;;;;;1866287;75;21598;-85
2022/09/25 11:25:17;;;;;;;5.53;1.42;;;;;;;;;;1857775;75;21182;-83
2022/09/25 11:27:52;;;;;;;4.08;1.50;;;;;;;;;;1867453;75;21265;-82
2022/09/25 11:30:23;;;;;;;2.72;1.30;;;;;;;;;;1859637;75;21178;-83
2022/09/25 11:32:56;;;;;;;2.15;1.17;;;;;;;;;;1869176;74;21166;-85
2022/09/25 11:35:35;;;;;;;3.65;2.30;;;;;;;;;;1862434;75;21693;-84
2022/09/25 11:38:08;;;;;;;3.37;2.08;;;;;;;;;;1857524;75;21165;-84
2022/09/25 11:43:14;;;;;;;2.98;1.57;;;;;;;;;;1853770;75;21528;-84
2022/09/25 11:45:47;;;;;;;4.37;1.80;;;;;;;;;;1858801;75;21135;-83
2022/09/25 11:48:26;;;;;;;2.75;1.80;;;;;;;;;;1858311;75;21171;-82
2022/09/25 11:50:58;;;;;;;4.40;1.70;;;;;;;;;;1868866;75;21155;-82
2022/09/25 11:53:36;;;;;;;4.00;1.62;;;;;;;;;;1862442;75;21305;-83
2022/09/25 11:56:05;;;;;;;2.80;1.60;;;;;;;;;;1850552;74;21597;-83
2022/09/25 11:58:39;;;;;;;3.98;1.85;;;;;;;;;;1864267;75;21155;-83
2022/09/25 12:01:11;;;;;;;4.05;1.95;;;;;;;;;;1868417;75;21115;-83
2022/09/25 12:03:45;;;;;;;4.50;1.87;;;;;;;;;;1818682;77;21215;-83
2022/09/25 12:06:18;;;;;;;5.42;2.20;;;;;;;;;;1855225;75;21147;-84
2022/09/25 12:08:50;;;;;;;4.80;2.35;;;;;;;;;;1861884;75;21723;-84
2022/09/25 12:11:23;;;;;;;4.67;2.20;;;;;;;;;;1857145;75;21191;-84
2022/09/25 12:13:57;;;;;;;4.42;2.20;;;;;;;;;;1859864;75;21162;-83
2022/09/25 12:16:28;;;;;;;3.60;2.20;;;;;;;;;;1884473;74;21118;-83
2022/09/25 12:19:01;;;;;;;5.12;2.50;;;;;;;;;;1887522;74;21175;-83
2022/09/25 12:21:34;;;;;;;3.37;2.00;;;;;;;;;;1910413;74;21167;-83
2022/09/25 12:24:08;;;;;;;3.33;2.25;;;;;;;;;;1900384;74;21138;-84
2022/09/25 12:26:41;;;;;;;2.83;2.08;;;;;;;;;;1907112;74;21596;-83
2022/09/25 12:29:15;;;;;;;5.28;2.47;;;;;;;;;;1896727;74;21617;-82
2022/09/25 12:31:45;;;;;;;3.95;2.30;;;;;;;;;;1895716;74;21148;-84
2022/09/25 12:34:16;;;;;;;3.60;2.00;;;;;;;;;;1899766;74;21579;-84
2022/09/25 12:36:48;;;;;;;4.58;2.50;;;;;;;;;;1900428;74;21631;-83
2022/09/25 12:39:19;;;;;;;4.58;2.33;;;;;;;;;;1903167;74;21633;-82
2022/09/25 12:41:51;;;;;;;4.30;2.22;;;;;;;;;;1911889;74;21109;-84
2022/09/25 12:44:27;;;;;;;3.92;2.47;;;;;;;;;;1896802;75;21569;-82
2022/09/25 12:46:56;;;;;;;5.10;3.10;;;;;;;;;;1919004;75;21126;-83
2022/09/25 12:49:33;;;;;;;3.40;2.52;;;;;;;;;;1892204;74;21169;-82
2022/09/25 12:52:03;;;;;;;7.72;3.12;;;;;;;;;;1849165;77;21115;-84
2022/09/25 12:54:35;;;;;;;5.20;2.98;;;;;;;;;;1894775;74;21078;-84
2022/09/25 12:57:06;;;;;;;4.75;2.52;;;;;;;;;;1894293;74;21188;-84
2022/09/25 12:59:39;;;;;;;7.22;2.92;;;;;;;;;;1887172;75;21142;-85
2022/09/25 13:02:12;;;;;;;4.40;2.83;;;;;;;;;;1856795;75;21150;-83
2022/09/25 13:04:43;;;;;;;5.55;2.75;;;;;;;;;;1860807;75;21150;-83
2022/09/25 13:07:16;;;;;;;4.00;2.60;;;;;;;;;;1892951;74;21093;-83
2022/09/25 13:09:48;;;;;;;5.40;3.20;;;;;;;;;;1898160;74;21098;-84
2022/09/25 13:12:20;;;;;;;4.03;2.65;;;;;;;;;;1857024;75;21111;-83
2022/09/25 13:14:57;;;;;;;4.42;3.02;;;;;;;;;;1830503;77;21142;-82
2022/09/25 13:17:27;;;;;;;6.60;2.92;;;;;;;;;;1900417;73;21118;-83
2022/09/25 13:20:19;;;;;;;4.58;3.40;;;;;;;;;;1886983;74;21240;-83
2022/09/25 13:22:41;;;;;;;5.03;2.95;;;;;;;;;;1889284;74;21137;-83
2022/09/25 13:25:13;;;;;;;5.55;3.20;;;;;;;;;;1892836;74;21506;-83
2022/09/25 13:27:45;;;;;;;5.20;2.55;;;;;;;;;;1878027;74;21091;-83
2022/09/25 13:30:50;;;;;;;6.83;2.77;;;;;;;;;;1885244;74;21134;-85
2022/09/25 13:32:58;;;;;;;4.33;2.65;;;;;;;;;;1882857;74;21110;-83
2022/09/25 13:35:30;;;;;;;4.75;2.75;;;;;;;;;;1890510;75;21168;-83
2022/09/25 13:38:01;;;;;;;4.90;2.70;;;;;;;;;;1888956;74;22147;-83
2022/09/25 13:40:42;;;;;;;5.28;3.15;;;;;;;;;;1877029;75;21106;-83
2022/09/25 13:43:06;;;;;;;4.90;2.67;;;;;;;;;;1883661;74;21142;-83
2022/09/25 13:45:38;;;;;;;5.42;3.17;;;;;;;;;;1880486;74;21155;-83
2022/09/25 13:48:09;;;;;;;4.22;2.92;;;;;;;;;;1885199;74;21555;-82
2022/09/25 13:50:45;;;;;;;4.80;2.85;;;;;;;;;;1884453;74;21204;-82
2022/09/25 13:53:16;;;;;;;5.45;3.10;;;;;;;;;;1880614;74;21642;-83
2022/09/25 13:55:48;;;;;;;5.83;3.45;;;;;;;;;;1879084;74;21163;-82
2022/09/25 13:58:19;;;;;;;5.45;2.98;;;;;;;;;;1887649;74;21135;-83
2022/09/25 14:00:52;;;;;;;4.50;3.17;;;;;;;;;;1886990;74;21612;-83
2022/09/25 14:03:26;;;;;;;4.47;3.02;;;;;;;;;;1851342;76;21166;-83
2022/09/25 14:06:07;;;;;;;5.40;3.22;;;;;;;;;;1846868;76;21275;-83
2022/09/25 14:08:39;;;;;;;6.78;4.00;;;;;;;;;;1883556;74;21200;-84
2022/09/25 14:11:12;;;;;;;5.95;3.52;;;;;;;;;;1887770;74;21095;-85
2022/09/25 14:13:45;;;;;;;7.97;3.20;;;;;;;;;;1898814;74;21133;-83
2022/09/25 14:16:15;;;;;;;4.95;3.92;;;;;;;;;;1901884;74;21610;-84
2022/09/25 14:18:47;;;;;;;4.55;3.27;;;;;;;;;;1909256;74;21085;-85
2022/09/25 14:21:20;;;;;;;7.40;3.77;;;;;;;;;;1900714;74;21252;-85
2022/09/25 14:23:52;;;;;;;6.20;3.70;;;;;;;;;;1899071;74;21103;-84
2022/09/25 14:26:22;;;;;;;6.78;3.52;;;;;;;;;;1904395;74;21648;-83
2022/09/25 14:28:53;;;;;;;7.37;3.95;;;;;;;;;;1853564;76;21169;-84
2022/09/25 14:31:25;;;;;;;5.55;4.03;;;;;;;;;;1858618;76;21079;-83
2022/09/25 14:33:56;;;;;;;8.13;4.03;;;;;;;;;;1866492;76;21067;-83
2022/09/25 14:36:26;;;;;;;7.00;4.22;;;;;;;;;;1857019;75;21216;-84
2022/09/25 14:39:00;;;;;;;9.30;4.17;;;;;;;;;;1860197;76;21185;-83
2022/09/25 14:41:32;;;;;;;6.15;3.67;;;;;;;;;;1865833;76;21123;-84
2022/09/25 14:44:05;;;;;;;7.87;4.45;;;;;;;;;;1854212;76;21210;-82
2022/09/25 14:46:34;;;;;;;6.75;4.50;;;;;;;;;;1856314;76;21646;-84
2022/09/25 14:49:10;;;;;;;7.95;5.62;;;;;;;;;;1854258;76;21113;-83
2022/09/25 14:51:42;;;;;;;9.33;6.58;;;;;;;;;;1853883;76;21121;-83
2022/09/25 14:54:14;;;;;;;9.58;5.87;;;;;;;;;;1853744;76;21198;-82
2022/09/25 14:56:49;;;;;;;10.65;6.10;;;;;;;;;;1855832;76;21129;-82
2022/09/25 14:59:22;;;;;;;9.33;5.12;;;;;;;;;;1856253;76;21625;-83
2022/09/25 15:01:52;;;;;;;9.50;5.10;;;;;;;;;;1856886;76;21088;-83
2022/09/25 15:04:24;;;;;;;3.77;2.10;;;;;;;;;;1862070;76;21185;-83
2022/09/25 15:06:58;;;;;;;3.50;1.82;;;;;;;;;;1870541;76;21162;-82
2022/09/25 15:09:29;;;;;;;4.37;2.17;;;;;;;;;;1858069;76;21184;-83
2022/09/25 15:12:01;;;;;;;2.00;1.35;;;;;;;;;;1862858;76;21174;-83
2022/09/25 15:14:32;;;;;;;3.85;1.40;;;;;;;;;;1853035;76;21197;-82
2022/09/25 15:19:43;;;;;;;5.00;1.05;;;;;;;;;;1854202;76;21466;-83
2022/09/25 15:22:26;;;;;;;;;;;;;;;;;;;;;
2022/09/25 15:25:07;;;;;;;1.90;0.80;;;;;;;;;;1802566;77;21106;-83
2022/09/25 15:27:41;;;;;;;4.00;0.93;;;;;;;;;;1826006;77;21186;-82
2022/09/25 15:30:33;;;;;;;1.75;0.95;;;;;;;;;;1779899;79;21112;-83